sensor_id;sensor_type;location;lat;lon;timestamp;pressure;altitude;pressure_sealevel;temperature;humidity
68169;BME280;54981;50.206;15.978;2023-09-08T00:01:37;99546.97;;;12.39;nan
68169;BME280;54981;50.206;15.978;2023-09-08T00:04:08;99553.03;;;12.42;nan
68169;BME280;54981;50.206;15.978;2023-09-08T00:06:38;99544.06;;;12.43;nan
68169;BME280;54981;50.206;15.978;2023-09-08T00:09:09;99539.75;;;12.41;nan
68169;BME280;54981;50.206;15.978;2023-09-08T00:11:39;99546.28;;;12.35;nan
68169;BME280;54981;50.206;15.978;2023-09-08T00:14:10;99547.31;;;12.32;nan
68169;BME280;54981;50.206;15.978;2023-09-08T00:16:40;99549.19;;;12.30;nan
68169;BME280;54981;50.206;15.978;2023-09-08T00:19:12;99548.50;;;12.27;nan
68169;BME280;54981;50.206;15.978;2023-09-08T00:21:43;99555.38;;;12.31;nan
68169;BME280;54981;50.206;15.978;2023-09-08T00:24:13;99548.50;;;12.27;nan
68169;BME280;54981;50.206;15.978;2023-09-08T00:26:43;99538.75;;;12.26;nan
68169;BME280;54981;50.206;15.978;2023-09-08T00:29:14;99548.56;;;12.25;nan
68169;BME280;54981;50.206;15.978;2023-09-08T00:31:44;99555.88;;;12.22;nan
68169;BME280;54981;50.206;15.978;2023-09-08T00:34:15;99548.03;;;12.19;nan
68169;BME280;54981;50.206;15.978;2023-09-08T00:36:45;99543.03;;;12.12;nan
68169;BME280;54981;50.206;15.978;2023-09-08T00:39:15;99545.81;;;12.09;nan
68169;BME280;54981;50.206;15.978;2023-09-08T00:41:46;99548.66;;;12.06;nan
68169;BME280;54981;50.206;15.978;2023-09-08T00:44:16;99542.53;;;12.04;nan
68169;BME280;54981;50.206;15.978;2023-09-08T00:46:46;99539.00;;;12.04;nan
68169;BME280;54981;50.206;15.978;2023-09-08T00:49:17;99539.97;;;12.03;nan
68169;BME280;54981;50.206;15.978;2023-09-08T00:51:47;99545.19;;;12.04;nan
68169;BME280;54981;50.206;15.978;2023-09-08T00:54:18;99538.22;;;12.02;nan
68169;BME280;54981;50.206;15.978;2023-09-08T00:56:48;99542.53;;;12.04;nan
68169;BME280;54981;50.206;15.978;2023-09-08T00:59:22;99548.50;;;11.92;nan
68169;BME280;54981;50.206;15.978;2023-09-08T01:01:53;99545.19;;;12.04;nan
68169;BME280;54981;50.206;15.978;2023-09-08T01:04:23;99547.88;;;12.04;nan
68169;BME280;54981;50.206;15.978;2023-09-08T01:06:55;99544.13;;;12.08;nan
68169;BME280;54981;50.206;15.978;2023-09-08T01:09:26;99542.38;;;12.07;nan
68169;BME280;54981;50.206;15.978;2023-09-08T01:11:56;99545.03;;;11.90;nan
68169;BME280;54981;50.206;15.978;2023-09-08T01:14:30;99552.13;;;11.91;nan
68169;BME280;54981;50.206;15.978;2023-09-08T01:17:01;99556.44;;;11.93;nan
68169;BME280;54981;50.206;15.978;2023-09-08T01:19:31;99551.34;;;11.89;nan
68169;BME280;54981;50.206;15.978;2023-09-08T01:27:45;99549.72;;;11.85;nan
68169;BME280;54981;50.206;15.978;2023-09-08T01:30:16;99551.59;;;11.83;nan
68169;BME280;54981;50.206;15.978;2023-09-08T01:32:47;99552.63;;;11.80;nan
68169;BME280;54981;50.206;15.978;2023-09-08T01:35:18;99540.28;;;11.78;nan
68169;BME280;54981;50.206;15.978;2023-09-08T01:37:49;99546.25;;;11.65;nan
68169;BME280;54981;50.206;15.978;2023-09-08T01:40:19;99540.50;;;11.56;nan
68169;BME280;54981;50.206;15.978;2023-09-08T01:42:49;99545.63;;;11.60;nan
68169;BME280;54981;50.206;15.978;2023-09-08T01:45:20;99547.50;;;11.58;nan
68169;BME280;54981;50.206;15.978;2023-09-08T01:47:50;99547.31;;;11.61;nan
68169;BME280;54981;50.206;15.978;2023-09-08T01:50:20;99536.81;;;11.58;nan
68169;BME280;54981;50.206;15.978;2023-09-08T01:52:51;99548.44;;;11.57;nan
68169;BME280;54981;50.206;15.978;2023-09-08T01:55:22;99540.50;;;11.56;nan
68169;BME280;54981;50.206;15.978;2023-09-08T01:57:52;99536.13;;;11.55;nan
68169;BME280;54981;50.206;15.978;2023-09-08T02:00:22;99534.47;;;11.52;nan
68169;BME280;54981;50.206;15.978;2023-09-08T02:02:53;99536.34;;;11.50;nan
68169;BME280;54981;50.206;15.978;2023-09-08T02:05:23;99534.59;;;11.49;nan
68169;BME280;54981;50.206;15.978;2023-09-08T02:07:55;99528.41;;;11.48;nan
68169;BME280;54981;50.206;15.978;2023-09-08T02:10:26;99530.38;;;11.45;nan
68169;BME280;54981;50.206;15.978;2023-09-08T02:12:57;99528.97;;;11.38;nan
68169;BME280;54981;50.206;15.978;2023-09-08T02:15:27;99529.72;;;11.40;nan
68169;BME280;54981;50.206;15.978;2023-09-08T02:17:58;99525.34;;;11.39;nan
68169;BME280;54981;50.206;15.978;2023-09-08T02:20:28;99526.13;;;11.41;nan
68169;BME280;54981;50.206;15.978;2023-09-08T02:23:04;99523.25;;;11.45;nan
68169;BME280;54981;50.206;15.978;2023-09-08T02:25:35;99528.56;;;11.45;nan
68169;BME280;54981;50.206;15.978;2023-09-08T02:28:05;99528.47;;;11.47;nan
68169;BME280;54981;50.206;15.978;2023-09-08T02:30:35;99526.94;;;11.43;nan
68169;BME280;54981;50.206;15.978;2023-09-08T02:33:07;99522.50;;;11.42;nan
68169;BME280;54981;50.206;15.978;2023-09-08T02:35:37;99515.63;;;11.38;nan
68169;BME280;54981;50.206;15.978;2023-09-08T02:38:11;99510.66;;;11.30;nan
68169;BME280;54981;50.206;15.978;2023-09-08T02:40:41;99515.19;;;11.28;nan
68169;BME280;54981;50.206;15.978;2023-09-08T02:43:13;99510.81;;;11.27;nan
68169;BME280;54981;50.206;15.978;2023-09-08T02:45:43;99517.16;;;11.24;nan
68169;BME280;54981;50.206;15.978;2023-09-08T02:48:13;99515.44;;;11.23;nan
68169;BME280;54981;50.206;15.978;2023-09-08T02:50:44;99520.59;;;11.26;nan
68169;BME280;54981;50.206;15.978;2023-09-08T02:53:14;99524.44;;;11.21;nan
68169;BME280;54981;50.206;15.978;2023-09-08T02:55:45;99519.97;;;11.21;nan
68169;BME280;54981;50.206;15.978;2023-09-08T02:58:16;99512.03;;;11.20;nan
68169;BME280;54981;50.206;15.978;2023-09-08T03:00:46;99510.22;;;11.20;nan
68169;BME280;54981;50.206;15.978;2023-09-08T03:03:17;99512.47;;;11.11;nan
68169;BME280;54981;50.206;15.978;2023-09-08T03:05:47;99505.72;;;11.03;nan
68169;BME280;54981;50.206;15.978;2023-09-08T03:08:17;99518.03;;;11.06;nan
68169;BME280;54981;50.206;15.978;2023-09-08T03:10:48;99516.31;;;11.05;nan
68169;BME280;54981;50.206;15.978;2023-09-08T03:13:19;99512.63;;;11.07;nan
68169;BME280;54981;50.206;15.978;2023-09-08T03:15:49;99514.34;;;11.08;nan
68169;BME280;54981;50.206;15.978;2023-09-08T03:18:20;99511.03;;;11.03;nan
68169;BME280;54981;50.206;15.978;2023-09-08T03:20:50;99514.66;;;11.02;nan
68169;BME280;54981;50.206;15.978;2023-09-08T03:23:21;99519.41;;;10.96;nan
68169;BME280;54981;50.206;15.978;2023-09-08T03:25:51;99518.47;;;10.97;nan
68169;BME280;54981;50.206;15.978;2023-09-08T03:28:21;99514.06;;;10.96;nan
68169;BME280;54981;50.206;15.978;2023-09-08T03:30:52;99510.56;;;10.95;nan
68169;BME280;54981;50.206;15.978;2023-09-08T03:33:23;99507.81;;;10.97;nan
68169;BME280;54981;50.206;15.978;2023-09-08T03:35:53;99508.75;;;10.96;nan
68169;BME280;54981;50.206;15.978;2023-09-08T03:38:24;99513.16;;;10.97;nan
68169;BME280;54981;50.206;15.978;2023-09-08T03:40:55;99507.94;;;10.94;nan
68169;BME280;54981;50.206;15.978;2023-09-08T03:43:25;99514.22;;;10.93;nan
68169;BME280;54981;50.206;15.978;2023-09-08T03:45:56;99511.63;;;10.91;nan
68169;BME280;54981;50.206;15.978;2023-09-08T03:48:26;99517.81;;;10.92;nan
68169;BME280;54981;50.206;15.978;2023-09-08T03:50:57;99523.13;;;10.92;nan
68169;BME280;54981;50.206;15.978;2023-09-08T03:53:28;99514.38;;;10.90;nan
68169;BME280;54981;50.206;15.978;2023-09-08T03:55:58;99518.75;;;10.91;nan
68169;BME280;54981;50.206;15.978;2023-09-08T03:58:28;99516.38;;;10.84;nan
68169;BME280;54981;50.206;15.978;2023-09-08T04:00:59;99507.72;;;10.79;nan
68169;BME280;54981;50.206;15.978;2023-09-08T04:03:29;99508.59;;;10.80;nan
68169;BME280;54981;50.206;15.978;2023-09-08T04:05:59;99507.03;;;10.76;nan
68169;BME280;54981;50.206;15.978;2023-09-08T04:08:30;99498.94;;;10.77;nan
68169;BME280;54981;50.206;15.978;2023-09-08T04:11:00;99500.69;;;10.78;nan
68169;BME280;54981;50.206;15.978;2023-09-08T04:13:30;99502.50;;;10.78;nan
68169;BME280;54981;50.206;15.978;2023-09-08T04:16:01;99502.56;;;10.76;nan
68169;BME280;54981;50.206;15.978;2023-09-08T04:18:31;99506.16;;;10.75;nan
68169;BME280;54981;50.206;15.978;2023-09-08T04:21:02;99504.38;;;10.76;nan
68169;BME280;54981;50.206;15.978;2023-09-08T04:23:32;99503.56;;;10.74;nan
68169;BME280;54981;50.206;15.978;2023-09-08T04:26:02;99504.44;;;10.74;nan
68169;BME280;54981;50.206;15.978;2023-09-08T04:28:33;99498.94;;;10.77;nan
68169;BME280;54981;50.206;15.978;2023-09-08T04:31:03;99506.88;;;10.79;nan
68169;BME280;54981;50.206;15.978;2023-09-08T04:33:33;99507.72;;;10.79;nan
68169;BME280;54981;50.206;15.978;2023-09-08T04:36:04;99503.25;;;10.80;nan
68169;BME280;54981;50.206;15.978;2023-09-08T04:38:34;99513.47;;;10.70;nan
68169;BME280;54981;50.206;15.978;2023-09-08T04:41:05;99508.16;;;10.70;nan
68169;BME280;54981;50.206;15.978;2023-09-08T04:43:35;99510.06;;;10.68;nan
68169;BME280;54981;50.206;15.978;2023-09-08T04:46:05;99508.31;;;10.67;nan
68169;BME280;54981;50.206;15.978;2023-09-08T04:48:36;99507.88;;;10.76;nan
68169;BME280;54981;50.206;15.978;2023-09-08T04:51:06;99501.28;;;10.85;nan
68169;BME280;54981;50.206;15.978;2023-09-08T04:53:37;99505.44;;;10.91;nan
68169;BME280;54981;50.206;15.978;2023-09-08T04:56:08;99507.94;;;10.94;nan
68169;BME280;54981;50.206;15.978;2023-09-08T04:58:38;99504.84;;;11.03;nan
68169;BME280;54981;50.206;15.978;2023-09-08T05:01:08;99504.00;;;11.02;nan
68169;BME280;54981;50.206;15.978;2023-09-08T05:03:39;99511.47;;;11.13;nan
68169;BME280;54981;50.206;15.978;2023-09-08T05:06:09;99512.09;;;11.18;nan
68169;BME280;54981;50.206;15.978;2023-09-08T05:08:39;99511.59;;;11.29;nan
68169;BME280;54981;50.206;15.978;2023-09-08T05:11:10;99518.34;;;11.36;nan
68169;BME280;54981;50.206;15.978;2023-09-08T05:13:40;99506.28;;;11.46;nan
68169;BME280;54981;50.206;15.978;2023-09-08T05:16:10;99515.94;;;11.49;nan
68169;BME280;54981;50.206;15.978;2023-09-08T05:18:41;99512.34;;;11.67;nan
68169;BME280;54981;50.206;15.978;2023-09-08T05:21:12;99522.06;;;11.68;nan
68169;BME280;54981;50.206;15.978;2023-09-08T05:23:44;99523.25;;;11.80;nan
68169;BME280;54981;50.206;15.978;2023-09-08T05:26:14;99525.63;;;11.86;nan
68169;BME280;54981;50.206;15.978;2023-09-08T05:28:44;99525.97;;;11.98;nan
68169;BME280;54981;50.206;15.978;2023-09-08T05:31:15;99527.25;;;12.08;nan
68169;BME280;54981;50.206;15.978;2023-09-08T05:33:45;99528.31;;;12.21;nan
68169;BME280;54981;50.206;15.978;2023-09-08T05:36:15;99531.34;;;12.31;nan
68169;BME280;54981;50.206;15.978;2023-09-08T05:38:46;99537.00;;;12.42;nan
68169;BME280;54981;50.206;15.978;2023-09-08T05:41:17;99539.38;;;12.48;nan
68169;BME280;54981;50.206;15.978;2023-09-08T05:43:47;99536.19;;;12.57;nan
68169;BME280;54981;50.206;15.978;2023-09-08T05:46:18;99538.59;;;12.62;nan
68169;BME280;54981;50.206;15.978;2023-09-08T05:48:48;99540.84;;;12.70;nan
68169;BME280;54981;50.206;15.978;2023-09-08T05:51:19;99537.00;;;12.75;nan
68169;BME280;54981;50.206;15.978;2023-09-08T05:53:49;99533.72;;;12.86;nan
68169;BME280;54981;50.206;15.978;2023-09-08T05:56:19;99532.91;;;13.02;nan
68169;BME280;54981;50.206;15.978;2023-09-08T05:58:50;99540.06;;;13.17;nan
68169;BME280;54981;50.206;15.978;2023-09-08T06:01:20;99537.50;;;13.31;nan
68169;BME280;54981;50.206;15.978;2023-09-08T06:03:51;99536.63;;;13.47;nan
68169;BME280;54981;50.206;15.978;2023-09-08T06:06:21;99532.97;;;13.63;nan
68169;BME280;54981;50.206;15.978;2023-09-08T06:08:52;99531.03;;;13.81;nan
68169;BME280;54981;50.206;15.978;2023-09-08T06:11:22;99527.56;;;13.95;nan
68169;BME280;54981;50.206;15.978;2023-09-08T06:13:52;99522.13;;;14.11;nan
68169;BME280;54981;50.206;15.978;2023-09-08T06:16:26;99528.28;;;14.27;nan
68169;BME280;54981;50.206;15.978;2023-09-08T06:18:56;99538.06;;;14.43;nan
68169;BME280;54981;50.206;15.978;2023-09-08T06:21:27;99532.75;;;14.72;nan
68169;BME280;54981;50.206;15.978;2023-09-08T06:23:57;99522.78;;;14.88;nan
68169;BME280;54981;50.206;15.978;2023-09-08T06:26:27;99530.25;;;14.97;nan
68169;BME280;54981;50.206;15.978;2023-09-08T06:28:58;99531.56;;;15.04;nan
68169;BME280;54981;50.206;15.978;2023-09-08T06:31:28;99530.69;;;15.18;nan
68169;BME280;54981;50.206;15.978;2023-09-08T06:33:58;99519.63;;;15.37;nan
68169;BME280;54981;50.206;15.978;2023-09-08T06:36:29;99516.22;;;15.48;nan
68169;BME280;54981;50.206;15.978;2023-09-08T06:38:59;99520.31;;;15.53;nan
68169;BME280;54981;50.206;15.978;2023-09-08T06:41:30;99511.78;;;15.61;nan
68169;BME280;54981;50.206;15.978;2023-09-08T06:44:00;99521.91;;;15.70;nan
68169;BME280;54981;50.206;15.978;2023-09-08T06:46:30;99524.97;;;15.79;nan
68169;BME280;54981;50.206;15.978;2023-09-08T06:49:01;99528.13;;;15.98;nan
68169;BME280;54981;50.206;15.978;2023-09-08T06:51:31;99528.03;;;16.12;nan
68169;BME280;54981;50.206;15.978;2023-09-08T06:54:02;99517.09;;;16.28;nan
68169;BME280;54981;50.206;15.978;2023-09-08T06:56:35;99517.75;;;16.45;nan
68169;BME280;54981;50.206;15.978;2023-09-08T06:59:05;99523.75;;;16.61;nan
68169;BME280;54981;50.206;15.978;2023-09-08T07:01:36;99518.84;;;16.80;nan
68169;BME280;54981;50.206;15.978;2023-09-08T07:04:06;99525.06;;;16.94;nan
68169;BME280;54981;50.206;15.978;2023-09-08T07:06:37;99519.84;;;17.16;nan
68169;BME280;54981;50.206;15.978;2023-09-08T07:09:08;99516.75;;;17.34;nan
68169;BME280;54981;50.206;15.978;2023-09-08T07:11:39;99510.69;;;17.43;nan
68169;BME280;54981;50.206;15.978;2023-09-08T07:14:09;99511.97;;;17.50;nan
68169;BME280;54981;50.206;15.978;2023-09-08T07:16:39;99504.69;;;17.63;nan
68169;BME280;54981;50.206;15.978;2023-09-08T07:19:10;99505.06;;;17.94;nan
68169;BME280;54981;50.206;15.978;2023-09-08T07:21:40;99493.88;;;18.23;nan
68169;BME280;54981;50.206;15.978;2023-09-08T07:24:10;99494.78;;;18.46;nan
68169;BME280;54981;50.206;15.978;2023-09-08T07:26:41;99496.53;;;18.69;nan
68169;BME280;54981;50.206;15.978;2023-09-08T07:29:11;99490.28;;;18.91;nan
68169;BME280;54981;50.206;15.978;2023-09-08T07:31:42;99488.28;;;19.05;nan
68169;BME280;54981;50.206;15.978;2023-09-08T07:34:12;99491.34;;;19.34;nan
68169;BME280;54981;50.206;15.978;2023-09-08T07:36:43;99475.84;;;19.79;nan
68169;BME280;54981;50.206;15.978;2023-09-08T07:39:13;99480.34;;;19.90;nan
68169;BME280;54981;50.206;15.978;2023-09-08T07:41:44;99481.78;;;20.15;nan
68169;BME280;54981;50.206;15.978;2023-09-08T07:44:14;99483.09;;;20.42;nan
68169;BME280;54981;50.206;15.978;2023-09-08T07:46:44;99477.25;;;20.68;nan
68169;BME280;54981;50.206;15.978;2023-09-08T07:49:16;99478.19;;;20.88;nan
68169;BME280;54981;50.206;15.978;2023-09-08T07:51:48;99476.38;;;20.98;nan
68169;BME280;54981;50.206;15.978;2023-09-08T07:54:19;99478.28;;;21.17;nan
68169;BME280;54981;50.206;15.978;2023-09-08T07:56:49;99481.22;;;21.44;nan
68169;BME280;54981;50.206;15.978;2023-09-08T07:59:19;99474.97;;;21.54;nan
68169;BME280;54981;50.206;15.978;2023-09-08T08:01:50;99474.97;;;21.73;nan
68169;BME280;54981;50.206;15.978;2023-09-08T08:04:20;99473.81;;;21.66;nan
68169;BME280;54981;50.206;15.978;2023-09-08T08:06:51;99472.53;;;21.89;nan
68169;BME280;54981;50.206;15.978;2023-09-08T08:09:21;99471.81;;;22.07;nan
68169;BME280;54981;50.206;15.978;2023-09-08T08:11:52;99473.50;;;22.18;nan
68169;BME280;54981;50.206;15.978;2023-09-08T08:14:22;99465.81;;;22.23;nan
68169;BME280;54981;50.206;15.978;2023-09-08T08:16:52;99469.72;;;22.58;nan
68169;BME280;54981;50.206;15.978;2023-09-08T08:19:23;99457.38;;;22.73;nan
68169;BME280;54981;50.206;15.978;2023-09-08T08:21:53;99462.13;;;22.99;nan
68169;BME280;54981;50.206;15.978;2023-09-08T08:24:23;99469.72;;;23.23;nan
68169;BME280;54981;50.206;15.978;2023-09-08T08:26:54;99457.31;;;23.38;nan
68169;BME280;54981;50.206;15.978;2023-09-08T08:29:24;99455.59;;;23.37;nan
68169;BME280;54981;50.206;15.978;2023-09-08T08:31:55;99459.34;;;23.54;nan
68169;BME280;54981;50.206;15.978;2023-09-08T08:34:25;99457.72;;;23.61;nan
68169;BME280;54981;50.206;15.978;2023-09-08T08:36:55;99452.88;;;23.91;nan
68169;BME280;54981;50.206;15.978;2023-09-08T08:39:26;99446.38;;;24.01;nan
68169;BME280;54981;50.206;15.978;2023-09-08T08:41:59;99448.50;;;24.16;nan
68169;BME280;54981;50.206;15.978;2023-09-08T08:44:39;99452.94;;;24.43;nan
68169;BME280;54981;50.206;15.978;2023-09-08T08:47:11;99451.53;;;24.57;nan
68169;BME280;54981;50.206;15.978;2023-09-08T08:49:44;99440.38;;;24.68;nan
68169;BME280;54981;50.206;15.978;2023-09-08T08:52:18;99444.50;;;24.80;nan
68169;BME280;54981;50.206;15.978;2023-09-08T08:54:48;99454.72;;;24.86;nan
68169;BME280;54981;50.206;15.978;2023-09-08T08:57:23;99445.22;;;24.91;nan
68169;BME280;54981;50.206;15.978;2023-09-08T08:59:53;99450.03;;;24.97;nan
68169;BME280;54981;50.206;15.978;2023-09-08T09:02:25;99444.59;;;25.13;nan
68169;BME280;54981;50.206;15.978;2023-09-08T09:04:56;99446.31;;;25.14;nan
68169;BME280;54981;50.206;15.978;2023-09-08T09:07:27;99446.72;;;25.19;nan
68169;BME280;54981;50.206;15.978;2023-09-08T09:09:58;99440.97;;;25.39;nan
68169;BME280;54981;50.206;15.978;2023-09-08T09:12:29;99435.53;;;25.55;nan
68169;BME280;54981;50.206;15.978;2023-09-08T09:14:59;99440.66;;;25.58;nan
68169;BME280;54981;50.206;15.978;2023-09-08T09:17:35;99432.63;;;25.73;nan
68169;BME280;54981;50.206;15.978;2023-09-08T09:20:16;99434.72;;;25.87;nan
68169;BME280;54981;50.206;15.978;2023-09-08T09:22:47;99436.09;;;26.08;nan
68169;BME280;54981;50.206;15.978;2023-09-08T09:25:23;99436.25;;;26.14;nan
68169;BME280;54981;50.206;15.978;2023-09-08T09:27:59;99431.63;;;26.07;nan
68169;BME280;54981;50.206;15.978;2023-09-08T09:30:48;99435.06;;;26.17;nan
68169;BME280;54981;50.206;15.978;2023-09-08T09:33:19;99435.88;;;26.34;nan
68169;BME280;54981;50.206;15.978;2023-09-08T09:35:51;99435.00;;;26.42;nan
68169;BME280;54981;50.206;15.978;2023-09-08T09:38:21;99438.22;;;26.45;nan
68169;BME280;54981;50.206;15.978;2023-09-08T09:40:52;99432.31;;;26.25;nan
68169;BME280;54981;50.206;15.978;2023-09-08T09:43:23;99431.75;;;26.46;nan
68169;BME280;54981;50.206;15.978;2023-09-08T09:45:53;99425.09;;;26.49;nan
68169;BME280;54981;50.206;15.978;2023-09-08T09:48:23;99429.34;;;26.51;nan
68169;BME280;54981;50.206;15.978;2023-09-08T09:50:54;99419.03;;;26.78;nan
68169;BME280;54981;50.206;15.978;2023-09-08T09:53:24;99423.03;;;26.98;nan
68169;BME280;54981;50.206;15.978;2023-09-08T09:55:56;99414.97;;;27.05;nan
68169;BME280;54981;50.206;15.978;2023-09-08T09:58:26;99414.59;;;27.08;nan
68169;BME280;54981;50.206;15.978;2023-09-08T10:00:58;99415.91;;;27.29;nan
68169;BME280;54981;50.206;15.978;2023-09-08T10:03:31;99410.47;;;27.52;nan
68169;BME280;54981;50.206;15.978;2023-09-08T10:06:03;99405.66;;;27.31;nan
68169;BME280;54981;50.206;15.978;2023-09-08T10:08:34;99406.75;;;27.45;nan
68169;BME280;54981;50.206;15.978;2023-09-08T10:11:07;99409.06;;;27.33;nan
68169;BME280;54981;50.206;15.978;2023-09-08T10:13:39;99407.16;;;27.56;nan
68169;BME280;54981;50.206;15.978;2023-09-08T10:16:15;99408.94;;;27.49;nan
68169;BME280;54981;50.206;15.978;2023-09-08T10:18:47;99405.56;;;27.39;nan
68169;BME280;54981;50.206;15.978;2023-09-08T10:21:21;99403.88;;;27.61;nan
68169;BME280;54981;50.206;15.978;2023-09-08T10:23:59;99404.00;;;27.68;nan
68169;BME280;54981;50.206;15.978;2023-09-08T10:26:35;99401.81;;;27.86;nan
68169;BME280;54981;50.206;15.978;2023-09-08T10:29:09;99395.13;;;27.66;nan
68169;BME280;54981;50.206;15.978;2023-09-08T10:31:41;99393.25;;;28.04;nan
68169;BME280;54981;50.206;15.978;2023-09-08T10:34:12;99390.66;;;28.25;nan
68169;BME280;54981;50.206;15.978;2023-09-08T10:36:43;99389.84;;;28.02;nan
68169;BME280;54981;50.206;15.978;2023-09-08T10:39:29;99385.44;;;28.01;nan
68169;BME280;54981;50.206;15.978;2023-09-08T10:47:30;99392.50;;;27.95;nan
68169;BME280;54981;50.206;15.978;2023-09-08T10:50:01;99390.25;;;28.14;nan
68169;BME280;54981;50.206;15.978;2023-09-08T10:52:32;99386.38;;;28.08;nan
68169;BME280;54981;50.206;15.978;2023-09-08T10:55:05;99380.25;;;28.06;nan
68169;BME280;54981;50.206;15.978;2023-09-08T10:57:36;99386.22;;;28.39;nan
68169;BME280;54981;50.206;15.978;2023-09-08T11:00:07;99380.94;;;28.38;nan
68169;BME280;54981;50.206;15.978;2023-09-08T11:02:48;99384.75;;;28.52;nan
68169;BME280;54981;50.206;15.978;2023-09-08T11:05:19;99377.34;;;28.67;nan
68169;BME280;54981;50.206;15.978;2023-09-08T11:07:51;99377.34;;;28.67;nan
68169;BME280;54981;50.206;15.978;2023-09-08T11:10:23;99377.81;;;28.85;nan
68169;BME280;54981;50.206;15.978;2023-09-08T11:12:54;99372.66;;;28.61;nan
68169;BME280;54981;50.206;15.978;2023-09-08T11:15:24;99365.28;;;28.61;nan
68169;BME280;54981;50.206;15.978;2023-09-08T11:17:55;99365.59;;;28.88;nan
68169;BME280;54981;50.206;15.978;2023-09-08T11:20:26;99363.22;;;29.00;nan
68169;BME280;54981;50.206;15.978;2023-09-08T11:22:57;99361.50;;;29.14;nan
68169;BME280;54981;50.206;15.978;2023-09-08T11:25:28;99361.31;;;29.00;nan
68169;BME280;54981;50.206;15.978;2023-09-08T11:27:58;99348.19;;;29.11;nan
68169;BME280;54981;50.206;15.978;2023-09-08T11:30:29;99351.72;;;29.26;nan
68169;BME280;54981;50.206;15.978;2023-09-08T11:32:59;99356.13;;;29.42;nan
68169;BME280;54981;50.206;15.978;2023-09-08T11:35:31;99350.41;;;29.43;nan
68169;BME280;54981;50.206;15.978;2023-09-08T11:38:03;99346.34;;;29.39;nan
68169;BME280;54981;50.206;15.978;2023-09-08T11:40:34;99335.59;;;29.38;nan
68169;BME280;54981;50.206;15.978;2023-09-08T11:43:07;99342.84;;;29.45;nan
68169;BME280;54981;50.206;15.978;2023-09-08T11:45:37;99341.59;;;29.48;nan
68169;BME280;54981;50.206;15.978;2023-09-08T11:48:07;99339.59;;;29.63;nan
68169;BME280;54981;50.206;15.978;2023-09-08T11:50:41;99337.66;;;29.79;nan
68169;BME280;54981;50.206;15.978;2023-09-08T11:53:11;99342.34;;;30.13;nan
68169;BME280;54981;50.206;15.978;2023-09-08T11:55:41;99333.69;;;30.09;nan
68169;BME280;54981;50.206;15.978;2023-09-08T11:58:12;99332.31;;;29.99;nan
68169;BME280;54981;50.206;15.978;2023-09-08T12:00:44;99332.44;;;29.84;nan
68169;BME280;54981;50.206;15.978;2023-09-08T12:03:15;99330.09;;;29.81;nan
68169;BME280;54981;50.206;15.978;2023-09-08T12:05:51;99332.44;;;29.84;nan
68169;BME280;54981;50.206;15.978;2023-09-08T12:08:25;99326.34;;;29.88;nan
68169;BME280;54981;50.206;15.978;2023-09-08T12:10:55;99326.94;;;30.12;nan
68169;BME280;54981;50.206;15.978;2023-09-08T12:13:25;99320.22;;;30.21;nan
68169;BME280;54981;50.206;15.978;2023-09-08T12:15:56;99321.44;;;30.12;nan
68169;BME280;54981;50.206;15.978;2023-09-08T12:18:39;99318.44;;;30.07;nan
68169;BME280;54981;50.206;15.978;2023-09-08T12:21:10;99308.34;;;30.49;nan
68169;BME280;54981;50.206;15.978;2023-09-08T12:23:48;99306.88;;;30.53;nan
68169;BME280;54981;50.206;15.978;2023-09-08T12:26:20;99311.66;;;30.38;nan
68169;BME280;54981;50.206;15.978;2023-09-08T12:28:50;99305.38;;;30.15;nan
68169;BME280;54981;50.206;15.978;2023-09-08T12:31:22;99301.94;;;30.00;nan
68169;BME280;54981;50.206;15.978;2023-09-08T12:33:52;99306.72;;;29.91;nan
68169;BME280;54981;50.206;15.978;2023-09-08T12:36:23;99293.69;;;30.00;nan
68169;BME280;54981;50.206;15.978;2023-09-08T12:38:53;99303.81;;;30.00;nan
68169;BME280;54981;50.206;15.978;2023-09-08T12:41:24;99295.72;;;29.91;nan
68169;BME280;54981;50.206;15.978;2023-09-08T12:43:54;99295.44;;;29.30;nan
68169;BME280;54981;50.206;15.978;2023-09-08T12:46:25;99294.34;;;29.74;nan
68169;BME280;54981;50.206;15.978;2023-09-08T12:48:55;99289.88;;;29.66;nan
68169;BME280;54981;50.206;15.978;2023-09-08T12:51:26;99288.97;;;29.87;nan
68169;BME280;54981;50.206;15.978;2023-09-08T12:53:56;99287.22;;;30.14;nan
68169;BME280;54981;50.206;15.978;2023-09-08T12:56:26;99292.81;;;30.28;nan
68169;BME280;54981;50.206;15.978;2023-09-08T12:58:57;99285.50;;;30.48;nan
68169;BME280;54981;50.206;15.978;2023-09-08T13:01:28;99281.16;;;30.74;nan
68169;BME280;54981;50.206;15.978;2023-09-08T13:03:59;99283.56;;;30.84;nan
68169;BME280;54981;50.206;15.978;2023-09-08T13:06:29;99280.59;;;30.92;nan
68169;BME280;54981;50.206;15.978;2023-09-08T13:09:02;99279.81;;;31.11;nan
68169;BME280;54981;50.206;15.978;2023-09-08T13:11:33;99278.97;;;31.11;nan
68169;BME280;54981;50.206;15.978;2023-09-08T13:14:03;99275.78;;;31.14;nan
68169;BME280;54981;50.206;15.978;2023-09-08T13:16:34;99278.34;;;31.15;nan
68169;BME280;54981;50.206;15.978;2023-09-08T13:19:04;99277.88;;;31.12;nan
68169;BME280;54981;50.206;15.978;2023-09-08T13:21:35;99270.06;;;31.09;nan
68169;BME280;54981;50.206;15.978;2023-09-08T13:24:06;99273.22;;;31.12;nan
68169;BME280;54981;50.206;15.978;2023-09-08T13:26:37;99272.41;;;31.25;nan
68169;BME280;54981;50.206;15.978;2023-09-08T13:29:08;99266.47;;;31.08;nan
68169;BME280;54981;50.206;15.978;2023-09-08T13:31:38;99269.66;;;31.18;nan
68169;BME280;54981;50.206;15.978;2023-09-08T13:34:09;99260.97;;;31.28;nan
68169;BME280;54981;50.206;15.978;2023-09-08T13:36:39;99264.13;;;31.05;nan
68169;BME280;54981;50.206;15.978;2023-09-08T13:39:09;99253.16;;;31.18;nan
68169;BME280;54981;50.206;15.978;2023-09-08T13:41:51;99255.91;;;31.25;nan